SMRA20 UAOL 120000
AAXX 12001

=
20667 42969 81809 10124 20089 39991 49998 57024 8805/ 333 91012 91114=
20744 41396 82510 10101 20097 39891 49910 53020 71082 886// 333 84707 84616 91114=
20946 81460 82410 10129 20122 39948 49964 56015 76162 8802/ 333 91012 91114=
20967 42/70 82005 10124 20107 30054 40075 57020 8805/=
21432 11496 73107 10019 20011 30072 40091 52014 60002 71022 87500 333 20017 31002 55006 91010 91111=
21535 12498 72907 10038 20017 30084 40105 52014 60002 87500 333 20008 31000 91010 91111=
21608 12998 62805 10070 20054 30142 40158 52007 60002 86030 333 20027 31003=
21636 12498 63106 10057 20029 30086 40116 52012 60002 86500 333 20027 32003=
21711 12699 73001 10082 20008 30143 40161 52009 60002 87500 333 20056 31005=
21721 11498 80106 10067 20036 30121 40145 52013 69962 70262 885// 333 20064 31008=
21802 12584 83304 10075 20032 30151 40173 52008 60002 885// 333 20049 30/// 55042 88624=
21813 12598 63604 10077 20030 30113 40146 52011 60002 86900 333 20064 31004=
21821 11496 80307 10083 20075 30101 40121 52015 69902 75152 886// 333 20083 31008=
21824 11496 80504 10093 20087 30120 40128 52015 60092 76162 8802/ 333 20093 32009 55090=
21908 12599 70000 10071 20038 30096 40173 52007 60002 87900 333 20053 31006 55007=
21921 12699 70306 10118 20084 30066 40105 52004 60002 86530 333 20096 31008=
21931 42598 80504 10102 20031 30083 40113 52004 885//=
21937 81799 60407 10116 20084 39990 40101 52008 70252 84530 333 91010=
21946 41295 80304 10084 20079 30023 40097 52018 75052 886// 333 55000 88704=
21978 41370 60504 10028 20022 30013 40020 52003 70241 82631 333 55102 91104=
21982 81470 83401 10050 20050 39988 40015 58016 72582 885// 333 91104=
22003 42699 82407 10126 20089 39991 40000 52007 889// 333 88946 91010 91112=
22004 42999 82605 10127 20055 39892 40017 53011 8805/ 333 91009 91110=
22028 41598 72609 10135 20072 39979 40015 52007 70282 86870 333 91012 91113=
22101 42599 32504 10123 20048 39916 40036 52012 81541 333 91008 91111=
22106 42/70 /2501 10118 20062 39960 40035 52011 333 91004=
22113 42598 72305 10126 20063 39963 40023 52008 86930 333 91007 91108=
22127 41598 72502 10124 20074 39846 40038 52004 70382 85930 333 91004=
22165 42570 32206 10102 20090 39959 40016 54000 82530=
22193 41597 72803 10110 20096 39998 40010 52009 70262 87500 333 87620 91112=
22212 41999 52704 10131 20059 39891 40047 52008 70282 85040 333 91008=
22213 42570 32805 10134 20070 39895 40054 52009 81530 333 91009=
22217 42/60 22602 10111 20079 30039 40070 53009 81042 333 91003=
22235 42970 02201 10090 20083 39862 40051 51003 333 91002=
22249 41599 22701 10095 20089 39867 40047 52005 70281 82500 333 91003=
22271 41570 22402 10113 20099 30022 40028 52004 70281 82530=
22292 41570 83205 10120 20104 30024 40029 52014 70262 885//=
22312 42/70 /2401 10125 20082 30039 40076 52009 333 91004=
22324 42599 52803 10139 20095 30023 40070 52008 81531 333 91005 91111=
22334 42/59 /2806 10120 20098 30064 40068 52005 333 91007=
22349 42570 22605 10117 20107 30051 40061 52003 81501 333 91005=
22365 41596 22305 10126 20120 30024 40049 53003 71011 81501 333 91111=
22383 41398 82503 10136 20127 30025 40041 53008 70286 886// 333 88708=
22408 42/84 52503 10123 20082 39980 40124 52009 80070=
22413 42/84 72703 10144 20093 39996 40091 52009 82032=
22429 42/70 72704 10143 20108 30093 40102 52005 81049=
22438 42570 62909 10141 20103 30054 40075 57008 82571 333 91011 91113=
22446 42598 52808 10146 20134 39983 40075 52001 81531 333 91012 91114=
22456 42/// /2401 10144 20144 39993 40076 50001=
22471 41/84 52403 10142 20135 30034 40057 53002 70286 82031=
22481 42/// /2302 10148 20147 30011 40061 52007=
22520 42/70 72605 10144 20099 30097 40106 52007 87030=
22525 42970 22604 10139 20096 30106 40118 52006 80001=
22529 41570 62503 10152 20098 30114 40120 52006 70281 82532=
22546 41/70 62304 10164 20130 30094 40103 52005 70282 84031=
22550 81671 52503 10162 20145 30087 40096 52001 70282 82530 333 91113=
22551 81498 62608 10172 20138 30084 40088 53002 70286 83570 333 91011 91112=
22559 42/// /2402 10154 20142 30086 40102 54000=
22563 42/// /2101 10152 20148 30051 40084 54001=
22573 41584 82103 10148 20132 39993 40078 53006 70882 82931=
22583 41570 62703 10157 20147 39999 40074 53005 70282 83501=
22602 42/75 22503 10127 20108 39934 40151 52007 8203/=
22619 42470 22603 10150 20108 39996 40148 52016 82500=
22621 42/70 /2502 10140 20100 30007 40141 52010=
22641 42/84 52303 10171 20132 30104 40119 52006 82031=
22648 41698 73102 10171 20170 30089 40133 53008 70282 85931 333 85640 91111=
22656 41/60 62403 10161 20150 30094 40115 57001 70282 83031=
22671 42/// /2401 10149 20145 30025 40100 54001=
22676 41598 72401 10158 20143 30031 40104 57001 70282 86930 333 85931=
22686 42570 82203 10172 20119 30008 40102 56009 8257/=
22695 42470 62503 10164 20098 39944 40088 57012 85530 333 85618=
22717 42/70 /2502 10166 20147 5/000=
22721 41/60 52902 10165 20137 30058 40151 52012 70281 84031=
22727 42/70 /2001 10158 20142 30117 40163 52009=
22749 42/70 62403 10167 20126 30033 40151 55000 84031=
22762 42/// /2301 10183 20133 30088 40125 57004=
22768 42560 72103 10174 20125 30094 40141 57005 87500 333 87623=
22778 42570 82402 10180 20120 30071 40136 57006 8657/=
22798 42570 82203 10162 20114 30024 40131 56012 8355/=
22802 42584 53003 10181 20133 30159 40181 52013 81531=
22805 42/// 22704 10172 20157 30166 40185 53009 81031=
22820 42/70 32404 10176 20141 30037 40166 52008 83030=
22831 42/60 62101 10179 20141 30111 40163 52001 86030=
22845 42/70 72203 10174 20122 30017 40166 57002 85032=
22854 42/84 72303 10165 20118 39889 40163 57003 87030=
22867 42470 72202 10166 20120 30061 40168 57008 87500 333 87618=
22869 42/70 72303 10157 20117 30028 40170 56009 80074=
22876 42/60 82305 10169 20122 30079 40148 56011 8805/=
22887 42660 82003 10158 20127 30090 40157 57011 82531=
22889 42/// /3002 10157 20110 30079 40171 57010=
22892 42970 52703 10173 20157 30191 40206 52012 80005 333 90760 91111=
22912 42/84 82603 10188 20155 30172 40186 52005 85031=
22913 42/60 72002 10181 20140 30165 40193 52002 85032=
22917 42960 62102 10164 20121 30199 40209 52005 80001=
22925 42/84 72503 10158 20119 30062 40194 57001 83032=
22939 42/60 62202 10153 20121 30053 40208 57001 86030=
22951 42/70 82602 10169 20114 39911 40178 57005 8805/=
22954 42/60 72403 10158 20112 39954 40193 57002 87040=
22981 42/60 82102 10153 20114 30048 40170 57010 85031=
22983 42984 82602 10148 20112 30070 40171 57010 83055 333 91003 91105=
22996 41970 71901 10129 20115 39995 40173 57011 71122 80008=
23022 41957 82010 10125 20101 39927 49990 57025 70542 8802/ 333 91013 91116=
23032 42961 61607 10121 20105 30006 40034 57027 80005 333 91010 91111=
23058 42556 81705 10135 20107 30120 40124 57010 885//=
23073 46/// /2403 10093 29075 39989 92348=
23078 11598 80803 10088 20076 30101 40180 57003 69972 76162 8653/ 333 20086 55126=
23112 41497 81911 10138 20130 39974 49982 57032 78086 883// 333 88911 91013 91113=
23114 41468 83009 10139 20131 39981 49988 57013 78082 889// 333 91012 91114=
23205 81497 83105 10136 20125 39993 40006 56001 76162 8672/ 333 86710 91110=
23220 43/// /1702 10128 20111 39925 40060 57018=
23226 42/60 81805 10120 20109 39852 40056 57024 8805/=
23242 41497 81707 10160 20135 30099 40114 57020 70484 885// 333 88618 91110=
23274 12698 71401 10094 20088 30157 40192 57003 60002 87500 333 20043 55094=
23305 41458 82304 10155 20150 30005 40031 56017 76162 885// 333 91110 88616=
23324 41/57 72002 10102 20092 39984 40058 57024 71011 83072=
23383 12698 80000 10037 20003 39847 40181 52002 60002 885// 333 20025=
23405 41456 82403 10148 20136 39958 40052 55017 78086 8395/ 333 91111=
23412 41699 82003 10133 20097 39955 40047 57023 72581 883// 333 86648=
23418 41665 71502 10126 20101 39998 40068 57019 72581 82931=
23472 12999 50000 10075 20069 30150 40202 52005 69902 80001 333 20026 55107=
23503 41498 82002 10135 20119 30016 40063 56015 76162 885// 333 88615=
23578 12499 73602 10098 20088 30150 40195 52004 60002 87600 333 20086=
23589 12699 22502 10071 20053 30034 40166 60002 82500 333 20009 55140=
23606 42/60 82101 10145 20103 39933 40095 57014 8805/=
23678 12998 00402 10078 20069 30131 40186 53004 60002 333 20064=
23699 12998 22901 10101 20067 39835 40111 60002 80001 333 20023=
23708 42584 82103 10142 20100 39988 40130 57012 8157/=
23711 42/70 62602 10124 20107 39948 40110 57012 86030=
23788 11/93 90000 10065 20065 30087 40163 52006 74700 333 20030=
23803 42/84 82402 10124 20095 39975 40148 57010 8805/=
23804 42560 82302 10150 20111 30003 40140 57011 8253/=
23812 42560 62602 10113 20104 39975 40131 57009 82532=
23884 12998 02701 10083 20075 30103 40173 53006 60002 333 20066 31007 55137=
23891 11/91 90000 10062 20062 39837 40139 52003 60002 74541 333 20055 55126 95090=
23909 82598 72403 10131 20109 39933 40169 57007 82571=
23914 41484 72605 10126 20115 39911 40157 57004 70341 87500=
23921 41580 72503 10134 20112 30013 40126 57001 70282 879//=
23955 12698 61401 10105 20085 30120 40179 57005 60002 82502 333 20077 30009 55133=
23966 12997 23501 10060 20053 30067 40190 54000 60002 80001 333 20059 30003 55122=
23973 13/// /0000 10102 20087 30108 40167 52005 60002 333 20081 3////=
23975 12999 03201 10079 20066 30066 40170 53006 60002 333 20079 55155=
23982 11998 20000 10068 20064 30006 40155 52005 60002 71111 80001 333 20045=
23986 12999 60000 10066 20055 39546 40156 53003 60002 86030 333 20052=
23987 12997 03302 10100 20077 30087 40157 53005 60002 333 20082 31009 55150=
23992 11/91 92401 10052 20047 39919 40137 60002 74540 333 20048=
24125 12/// /0505 10081 20039 39890 40156 52006 60002 333 20071=
24136 12584 83602 10089 20062 30039 40133 52006 60002 889// 333 20082 31/// 55000=
24143 12/84 70107 10118 20070 30035 40081 51004 60002 85031 333 20100 30/// 91012 90760 91112=
24266 12684 63403 10154 20105 39908 40070 52004 60002 85530=
24329 11570 80000 10104 20098 39818 40099 53006 60022 76162 885// 333 20094 32/// 55000=
24343 12484 83505 10134 20091 39946 40054 52007 60002 83602 333 20101 30/// 55151 91010 90760 91111=
24382 42584 53304 10173 20132 39823 40050 51007 83501 333 55088=
24507 12698 23402 10092 20050 39910 40140 52011 60002 82500 333 20046 55031=
24606 12599 83003 10106 20073 39826 40076 53004 60002 889// 333 20093 55019=
24639 12584 80000 10149 20120 39901 40041 52007 69902 83531 333 20098 30/// 55101=
24641 12/84 81502 10170 20113 39912 40041 52008 69902 84031 333 20127 30/// 55131=
24652 12984 02802 10193 20164 39916 40023 52004 60002 333 10000 30///=
24656 12/84 21401 10190 20159 39930 40024 52005 60002 82030 333 20110 30///=
24661 12684 21001 10208 20145 39782 40019 52003 69902 81930 333 20126 30///=
24688 41684 60000 10155 20093 39211 40045 52005 70282 86930 333 55008=
24724 11/60 80701 10158 20120 39550 40031 57001 60002 71022 83031 333 20123 30///=
24738 12/84 82401 10177 20139 39883 40043 52003 60002 8803/ 333 20141 30/// 55128=
24768 11670 81602 10157 20167 39819 40034 52007 60032 76261 885// 333 20143 31///=
24790 41470 82502 10138 20118 39307 40050 52007 70282 889// 333 55012 83613=
24802 12599 73203 10094 20062 39675 40100 58001 60002 87500 333 20090 32010 55061=
24807 12998 03202 10103 20074 39715 40109 53007 69902 333 20069=
24817 11499 82802 10127 20106 39729 40060 52002 60002 71622 8697/ 333 20124 55077=
24856 12599 82002 10172 20153 39890 40031 52005 60002 885// 333 20111 30012 55094=
24871 41670 80000 10167 20152 39883 40048 52008 70262 8257/=
24894 42/// /2401 10122 20099 39106 40055 52006=
24898 42684 72103 10164 20096 39401 40054 54000 84331=
24908 12598 83401 10118 20099 39789 40096 52003 69992 889// 333 20107 31012 55053=
24918 11599 71401 10129 20122 39723 40069 54000 60022 70282 84975 333 20110 55084=
24923 11684 82404 10159 20130 39779 40060 54000 69902 70282 81931 333 20145 30///=
24928 12999 50000 10116 20108 39718 40070 57002 60002 84039 333 20080 30010 55055=
24933 12999 73202 10154 20147 39766 40059 53004 60002 87030 333 20075 31006 55110=
24944 12584 82403 10159 20130 39789 40057 52005 69902 82131 333 20102 31/// 55137=
24951 12/84 72603 10167 20134 39885 40037 52004 60002 87070 333 20154 31///=
24959 12/// 80000 10188 20155 39911 40026 52008 69902 8553/ 333 20124 31///=
24962 12584 81501 10176 20136 39862 40032 52001 60002 85331 333 20115 30/// 55069=
24966 41540 81001 10166 20132 39836 40034 52007 70522 8693/ 333 55028=
24967 12/84 80000 10156 20085 39839 40040 53010 69902 85071 333 20123 30///=
24982 42584 71901 10146 20130 39604 40064 52002 87900 333 55029=
24988 42484 80202 10157 20149 39828 40059 52003 886//=
25017 41484 70106 10120 20088 30042 40061 52020 70262 83630=
25034 41470 80506 10086 20072 30013 40041 52013 70282 885// 333 20085 90760 91109=
25042 42370 70602 10053 20039 30009 40026 52008 82635 333 55069 91004 91105=
25044 42598 73604 10063 20059 30023 40029 52010 86630 333 91105=
25051 42970 62001 10073 20046 30015 40022 52005 80002 333 91104=
25062 41599 73403 10015 20009 30005 40009 57002 70262 87500 333 91105=
25121 41470 70306 10167 20120 30019 40033 52010 71522 85930=
25123 42998 63202 10188 20122 39990 40019 52003 85031 333 55133=
25138 42599 73202 10208 20135 39906 40015 52002 86330 333 55119 91104=
25147 42599 71902 10198 20139 39687 40020 58001 86830 333 91104=
25206 42/84 83302 10202 20148 30000 40036 52009 82031=
25282 42598 818// 10176 20111 30006 40012 57010 82535 333 91009=
25335 41598 81101 10138 20123 39700 40035 52006 72162 8752/ 333 55081 91102=
25378 42997 81704 10129 20100 30027 40054 57014 86031 333 91107=
25399 41256 72016 10080 20067 30073 40082 57006 71022 83601 333 91020 91120=
25400 42470 82802 10187 20130 39991 40041 52013 8497/ 333 55099 84918=
25428 42584 81001 10150 20091 39744 40046 52001 85836 333 55043 91104=
25469 42599 72603 10162 20096 30042 40064 57009 87900 333 91107=
25503 42/84 61401 10199 20141 39927 40042 52003 83012 333 55000=
25551 41599 62004 10176 20103 30014 40040 57012 70282 84930 333 91108=
25563 41599 72604 10140 20118 39993 40066 57007 70282 85930 333 91106=
25627 41570 62103 10146 20104 39244 40046 52002 70242 85931=
25648 41460 82103 10131 20122 30017 40070 57003 78188 889// 333 55137=
25700 41570 82101 10159 20143 39688 40049 52008 78082 889//=
25703 41696 71601 10172 20142 39807 40051 52009 72582 84931 333 55007=
25705 41570 80101 10167 20138 39742 40045 52010 70482 889// 333 55000=
25707 42684 81702 10169 20128 39648 40049 52006 885//=
25715 41584 82202 10134 20115 39479 40055 52006 78082 889// 333 88927=
25745 81498 82703 10142 20123 30025 40073 57002 78082 889// 333 55000=
25808 42684 73601 10166 20105 39259 40055 52006 83931=
25820 42460 72105 10154 20148 30061 40075 52004 86630 333 86711=
25904 42/// /0000 10155 20105 39467 40064 54000=
25913 42484 71302 10152 20129 39931 40068 52001 87300 333 55000=
25916 41/05 91006 10107 20107 39995 40074 52002 74584 89/// 333 55004=
25919 41905 90000 10095 20095 30065 40081 52003 74744 89///=
25922 41/05 91904 10129 20128 30035 40075 53005 74742 89/// 333 55000=
25927 42584 81904 10150 20136 30067 40073 52003 889// 333 55013=
25941 41560 83403 10154 20134 30078 40095 52002 78082 889// 333 55000=
25956 41570 81804 10124 20088 30146 40152 52004 70282 885//=
26029 25/74 /1802 10170 20164 30193 40221 54000 333 59016 60005 91004 90710 91105=
26038 21/81 12102 10158 20152 30183 40223 54002 70211 80001 33310262 20158 60007 80/// 5551/014 20158 3/014 50205 52015=
26045 27/84 02205 10162 20140 30219 40223 52006 70000 80/// 33310267 20162 60007 80/// 55520162 50208=
26046 333 55135 55300=
26058 27/70 02203 10146 20131 30191 40225 52004 70000 80/// 33310244 20146 60007 80/// 55520146 50187=
26059 42/60 62201 10148 20136 30202 40226 52005 82031=
26063 42460 32402 10183 20139 30214 40218 52005 82501=
26069 42984 72203 10149 20124 30119 40226 52004 80001=
26072 42/70 32101 10161 20128 30193 40212 52005 83030=
26078 42/// /2101 10155 20127 30178 40225 52004=
26080 42984 32202 10155 20127 30191 40223 53004 80001=
26094 42960 72301 10157 20118 30147 40222 52003 80005=
26099 42/// /2501 10145 20112 30013 40222 52003=
26115 27/75 02103 10196 20187 30213 40222 54001 70000 80/// 33310216 20195 60007 80/// 55520195 50201=
26124 25/61 /1903 10157 20154 30200 40229 52003 333 55138 55300 59016 60005 91004 90710 91104=
26128 27270 12203 10179 20164 30229 40232 54000 70000 81/// 333 10229 20178 60007 81/04 555 20178 50197=
26134 27161 62102 10157 20158 30167 40231 54001 70000 86/// 33310242 20154 60007 86/02 55520154 50193=
26135 27/68 02101 10154 20148 30162 40235 52004 70000 80/// 33310245 20151 60007 80/// 55520151 50191=
26141 27/69 02203 10128 20125 30087 40233 52005 70000 80/// 33310253 20127 60007 80/// 55520127 50185=
26144 27/70 /2001 10134 20123 30152 40237 52003 70000 33310254 20129 60007 55520129 50182=
26145 25/70 ///// 10157 20136 30194 40233 52003 333 55132 55300 59019 60005=
26157 42970 82402 10185 20138 30189 40237 52005 80001=
26167 42968 72201 10123 20118 30130 40242 52005 80001=
26179 42960 52301 10127 20115 30210 40241 52004 80001=
26214 27/83 02206 10196 20173 30222 40229 54001 70000 80/// 33310218 20196 60007 80/// 91009 91110 5551/017 20196 3/017 50203=
26218 333 55149=
26226 27/84 02407 10194 20165 30237 40240 51002 70000 80/// 33310222 20194 60007 80/// 91008 91109 55520194 50203=
26227 27/83 02604 10187 20161 30241 40243 52002 70000 80/// 33310238 20186 60007 80/// 91108 55520186 50204=
26229 05970 02201 10111 20107 30238 40246 52004 60001 333 59015 60007 70000 91004 90710 91104 555 60005 90730 91104=
26231 333 55136 55300=
26233 333 55142 55300=
26238 05970 01701 10123 20110 30167 40250 52004 60001 333 59015 60007 70000 91001 90710 91101 555 60005 90730 91101=
26242 21/81 21901 10147 20106 30161 40246 52007 70110 80001 33310254 20147 60007 80/// 5551/014 20147 3/014 50189 52011=
26247 27/78 /2600 10119 20112 30173 40251 52008 70000 33310253 20117 60007 55520117 50177=
26249 25/70 /2901 10136 20122 30151 40251 52006 333 55145 55300 59013 60005 91002 90710 91102=
26258 42970 30000 10109 20103 30195 40248 52005 80001=
26275 41940 82101 10129 20116 30217 40247 52004 71022 80008=
26285 42/// /0701 10104 20099 30172 40250 52003=
26291 42970 00000 10118 20106 30135 40243 52003=
26298 42960 32301 10118 20093 30029 40255 52005 80001=
26313 05970 02503 10166 20153 30238 40243 54001 60001 333 55300 20000 59019 60007 70000 91005 90710 91105 555 60005 90730 91105=
26314 05970 01803 10171 20158 30243 40247 54001 60001 333 59016 60007 70000 91005 90710 91108 555 60005 90730 91109=
26318 05970 01501 10119 20112 30157 40255 52003 60001 333 59013 60007 70000 91002 90710 91103 555 60005 90730 91103=
26324 05/// /2101 10119 20116 30246 40252 52005 69911 333 59013 69917 70001 91002 90710 91103 555 69915 90730 91103=
26326 07/70 /0801 10139 20135 30244 40253 52008 60001 333 59013 60007 70000 91001 90710 91102 555 60005 90730 91102=
26335 05/70 /2202 10165 20119 30108 40255 52008 60001 333 59011 60007 70000 91003 90710 91106 555 60005 90730 91106=
26339 07970 01601 10122 20109 30031 40259 52005 60001 333 55300 20000 59011 60007 70000 91002 90710 91102 555 60005 90730 91103=
26346 05970 01902 10156 20114 30018 40255 52004 60001 333 55300 20000 59010 60007 70000 91003 90710 91103 555 60005 90730 91103=
26348 05/70 /2101 10148 20114 30087 40257 52005 60001 333 59009 60007 70000 91003 90710 91103 555 60005 90730 91103=
26359 42970 01501 10136 20111 30137 40262 52005=
26378 42960 20000 10071 20071 30175 40263 52005 80001=
26381 42/// /1101 10095 20090 30180 40256 52006=
26389 41940 00000 10088 20077 30005 40267 52007 71000=
26393 41960 20000 10103 20101 30053 40258 52006 71200 80001=
26403 05/63 /1502 10126 20126 30243 40253 52004 60001 333 59014 60007 70000 91003 90710 91103 555 60005 90730 91103=
26406 07908 01501 10114 20114 30254 40258 52006 60001 73031 333 55300 20000 59012 60007 70000 91001 90710 91101 555 60005 90730 91102=
26416 05970 01602 10132 20119 30113 40261 52004 60001 333 59011 60007 70000 91003 90710 91103 555 60005 90730 91103=
26422 05964 02201 10177 20148 30251 40255 52008 60001 333 55300 20000 59012 60007 70000 91001 90710 91103 555 60005 90730 91105=
26424 05969 02101 10124 20121 30207 40258 52007 60001 333 55300 20000 59011 60007 70000 91002 90710 91102 555 60005 90730 91104=
26425 07/63 /2101 10114 20110 30249 40258 52008 60001 333 59009 60007 70000 91001 90710 91101 555 60005 90730 91102=
26429 05/70 /1701 10117 20111 30221 40259 52008 60001 333 59007 60007 70000 91001 90710 91101 555 60005 90730 91104=
26435 05970 02701 10128 20114 30161 40258 52007 60001 333 59008 60007 70000 91002 90710 91103 555 60005 90730 91103=
26436 05/64 /1901 10118 20111 30133 40263 52007 60001 333 59006 60007 70000 91001 90710 91102 555 60005 90730 91103=
26446 05970 02002 10124 20107 30061 40267 52006 60001 333 59005 60007 70000 91003 90710 91103 555 60005 90730 91103=
26447 05/70 /2301 10097 20094 30102 40264 52006 60001 333 59008 60007 70000 91001 90710 91101 555 60005 90730 91101=
26456 42960 00000 10091 20090 30144 40265 52007=
26477 42960 00000 10099 20098 30139 40268 52006=
26479 41920 00000 10096 20096 30042 40271 52007 71000=
26499 42960 00000 10093 20086 30040 40266 52006=
26501 16/// /0000 10105 20093 30180 40262 52007 60001 333 91001 90760 91102=
26502 22065 00401 10123 20112 30246 40261 51005 333 60005 91001 90760 91103=
26503 07/09 /0901 10104 20094 30236 40260 52006 60001 71031 333 553// 20000 59011 60007 70000 91001 90710 91102 555 60005 90730 91102=
26504 16/// ///// 10107 20099 60001=
26509 32970 01102 10140 20119 30246 40255 52002 333 91003 91103 555 1/011=
26515 12070 01801 10136 20119 30078 40262 52003 60001 333 91002 90760 91102=
26517 16/// /0802 10121 20097 60001 333 91002 90760 91102=
26518 32970 01102 10115 20099 30061 40263 52002 333 91002 91102 555 1/010=
26524 31970 02201 10126 20120 30131 40262 52004 71100 333 91001 91101 555 1/007=
26528 16/// ///// 10110 20101 60001=
26529 12070 03301 10123 20119 30190 40261 52006 60001 333 91002 90760 91103=
26531 32970 01001 10120 20110 30186 40261 52007 333 91002 91105 555 1/009=
26539 16/// /1501 10125 20107 30095 40264 52004 60001 333 91001 90760 91102=
26544 07939 00401 10099 20099 30147 40268 52005 60001 71031 333 55300 20000 59004 60007 70000 91001 90710 91101 555 60005 90730 91101=
26547 12064 03301 10117 20114 30070 40267 52004 60001 333 91001 90760 91102=
26551 07/57 /3200 10118 20117 30041 40269 52006 60001 7101/ 333 59003 60007 70000 91001 90710 91101 555 60005 90730 91101=
26554 41937 00000 10110 20109 30105 40266 52007 71000=
26578 41940 00000 10105 20101 30060 40261 52006 71000=
26585 42960 01201 10095 20090 30000 40271 52006=
26600 12070 00601 10110 20106 30248 40254 54002 60001 333 91001 90760 91102=
26603 12069 00802 10191 20141 30251 40254 54000 60001 333 91003 90760 91103=
26603 12069 00802 10191 20141 30251 40254 54000 60001 333 91003 90760 91103=
26615 16/// /0000 10130 20116 30215 40257 54000 60001 333 91001 90760 91102=
26620 12070 03101 10134 20111 30166 40260 52004 60001 333 91002 90760 91103=
26621 12070 00702 10141 20104 30126 40259 52003 60001 333 91002 90760 91104=
26629 32963 00000 10137 20132 30163 40257 52002 333 91001 91102 555 1/010=
26633 32969 00000 10106 20103 30135 40265 51004 333 91001 91101 555 1/008=
26634 11050 00000 10108 20105 30172 40262 52004 60001 728// 333 91000 90760 91101=
26636 16/// /0501 10135 20113 39996 40264 52002 60001 333 91001 90760 91102=
26643 42964 00000 10124 20117 30105 40264 52006=
26645 42965 00000 10109 20104 30008 40265 52002=
26653 42960 00000 10118 20117 30104 40265 52008=
26659 42/81 /0001 10136 20127 30051 40261 52004=
26666 42976 00000 10119 20115 30054 40267 52007=
26695 41940 03001 10082 20081 39969 40271 52004 71000=
26708 41996 33201 10118 20113 30237 40254 57001 71000 80001 333 91001 91101=
26713 12070 00000 10122 20113 30183 40256 52002 60001 333 91001 90760 91102=
26713 12070 00000 10122 20113 30183 40256 52002 60001 333 91001 90760 91102=
26714 16/// /0000 10133 20127 60001 333 91001 90760 91101=
26728 12070 00301 10126 20114 30092 40255 54000 69921 333 91001 90760 91101=
26729 16/// ///// 10119 20113 60001=
26730 32970 03601 10141 20128 30071 40259 52003 333 91002 91102 555 1/012=
26732 22060 00703 10174 20120 30030 40256 52002 333 60005 91004 90760 91104=
26737 12067 00000 10113 20111 30122 40256 54001 60001 333 91001 90760 91101=
26759 42984 00601 10161 20121 30030 40254 50003=
26763 42986 03501 10143 20118 30033 40255 52004=
26774 42961 00303 10150 20108 30017 40257 52004=
26781 42960 00000 10121 20101 39977 40267 52004=
26784 42970 00401 10133 20100 30018 40262 52005=
26795 42960 00000 10135 20102 39974 40259 52003=
26832 42981 00502 10162 20129 30065 40252 52002=
26850 42970 03601 10132 20122 39977 40254 52002=
26853 42981 03501 10149 20124 30068 40253 52004=
26855 42980 00802 10165 20128 30033 40242 52002=
26864 41940 03501 10145 20132 30060 40246 52004 71000=
26878 42970 00302 10159 20136 30039 40241 52002=
26882 42970 00201 10147 20126 39986 40254 52004=
26887 42981 00101 10155 20139 30039 40238 51002=
26894 41940 03602 10143 20131 30036 40247 52004 71000=
26898 41940 00501 10169 20151 39985 40241 52001 71000=
26941 42960 00503 10168 20125 30011 40240 54000=
26951 42964 10601 10158 20135 30043 40236 52002 80001=
26961 42960 00000 10154 20138 30053 40240 52003=
26966 42981 00000 10176 20145 30066 40234 52001=
26976 42960 03602 10162 20141 30058 40233 52001=
26997 41940 00302 10167 20158 30017 40227 52002 71000=
27037 42/70 62102 10125 20106 30070 40227 54000 82031=
27051 42460 62101 10137 20115 30039 40199 57002 83530=
27066 42570 72102 10148 20114 30033 40202 57007 84530=
27083 42584 82302 10140 20116 39973 40186 57009 885// 333 91005 91105=
27108 42/// /2601 10114 20105 30064 40242 52003=
27113 42560 72701 10132 20117 30083 40225 54000 83501=
27164 42/60 50000 10109 20106 30041 40226 57004 82031=
27176 42/84 30000 10105 20094 30023 40216 57006 83050=
27199 42998 32501 10135 20114 30024 40215 57006 82071 333 91002 91103=
27208 42960 62101 10100 20089 30081 40254 52006 80004=
27215 42970 60000 10103 20099 30045 40248 52002 80001=
27223 42960 02201 10115 20111 30092 40237 52002=
27225 42960 52301 10141 20108 30115 40242 52003 80001=
27242 42970 00000 10113 20113 30109 40234 54001=
27252 42970 82601 10109 20095 30051 40233 57004 80001=
27271 42/60 61701 10103 20087 30075 40227 57004 82031=
27277 42598 60000 10108 20104 30074 40237 58002 83501 333 91001 91101=
27283 42997 62702 10139 20111 30062 40212 58006 84031 333 91003 91105=
27296 42998 21701 10126 20098 30010 40220 57003 80001 333 91002 91102=
27316 42960 20000 10091 20087 30086 40257 52004 80001=
27321 42960 21901 10132 20104 30106 40252 52006 80001=
27329 42960 00000 10094 20090 30132 40256 52005=
27333 42/84 22103 10126 20100 30094 40248 52003 80040=
27347 42960 30000 10093 20089 30104 40257 52004 80001=
27355 42960 03201 10144 20097 30086 40245 54000=
27369 42997 32602 10139 20097 30110 40243 58001 83010 333 91004 91104=
27373 42970 22201 10106 20104 30025 40238 58001 80001 333 91002 91103=
27393 41997 22103 10108 20100 30069 40235 54000 71000 80031 333 91004 91104=
27401 81996 00000 10092 20086 30054 40266 52006 71000 555   11014=
27402 42960 00000 10100 20094 30087 40264 52008=
27417 42/// /0000 10092 20092 30063 40266 52007=
27417 42/// /0000 10092 20092 30063 40266 52007 555   1/010=
27419 82997 00000 10114 20101 30045 40263 52007 555   11012=
27453 42997 20000 10114 20130 30126 40250 52001 80001 333 91000 91101=
27459 42969 00000 10129 20122 30061 40250 52003 333 91000 90760 91101=
27479 42997 22502 10155 20120 30119 40247 52003 80001 333 91003 91103=
27485 42997 22501 10122 20112 30099 40243 52002 80001 333 91002 91104=
27491 42998 20000 10109 20101 30066 40240 52002 80002 333 91000 911//=
27507 41940 00000 10076 20069 30032 40270 52007 71100=
27511 42960 00000 10098 20091 30068 40262 52006=
27523 42960 03001 10115 20114 30097 40259 52007=
27523 82997 03001 10115 20114 30097 40259 52007 555   10012=
27532 42960 00000 10104 20082 30052 40261 52006=
27539 41/40 /0000 10099 20089 30094 40261 52006 71200=
27577 42998 20000 10100 20091 30101 40254 52005 80003 333 91000 91102=
27593 42570 22401 10115 20091 30057 40242 52003 8250/=
27595 42960 03201 10144 20116 30102 40243 52005=
27606 42970 00000 10099 20091 30021 40260 52005=
27611 42960 00000 10103 20094 30029 40262 52007=
27611 82997 00000 10103 20094 30029 40262 52007 555   10013=
27612 42970 00000 10133 20115 30081 40261 52008=
27618 82997 00000 10114 20104 30057 40256 52006 555   11013=
27627 42/70 /0701 10141 20123 39994 40257 52006=
27643 42960 02901 10111 20111 30120 40258 52007 333 91001 90760 91101=
27648 42960 00000 10099 20087 30088 40250 52003=
27653 41996 00000 10075 20065 30109 40262 52007 71100 333 91000 91102=
27665 42970 02801 10118 20104 39994 40257 52007 333 91001 90760 91102=
27675 42960 00000 10094 20076 30088 40255 52007 333 91000 90760 91101=
27679 42998 23503 10134 20103 30034 40251 52005 82030 333 91003 91103=
27697 42970 02601 10121 20105 30057 40247 52005=
27707 42960 00401 10142 20127 39968 40252 52004=
27719 42960 00501 10132 20122 30008 40254 52005=
27730 42960 00000 10126 20117 30065 40255 52006=
27745 42960 03502 10131 20114 30110 40249 52008=
27745 82960 03502 10131 20114 30110 40249 52008 555   10015=
27752 41997 03101 10103 20088 30089 40259 52007 71000 333 91001 91102=
27756 42997 60201 10165 20099 30027 40251 52008 80001 333 91003 91103=
27760 42997 20302 10161 20117 30011 40249 52005 84030 333 91002 91104=
27776 42970 03101 10140 20123 30126 40246 52008=
27785 42/60 23002 10122 20111 30090 40247 53007 82030=
27799 42960 03301 10116 20098 30156 40245 52008=
27817 41940 03601 10157 20143 30002 40238 52002 71000=
27821 42960 00000 10141 20123 39979 40254 52003=
27823 42960 00102 10161 20126 39996 40245 52004=
27835 41940 03601 10141 20131 30088 40241 52005 71000=
27848 42960 03601 10162 20138 30064 40234 52003=
27857 42960 03602 10178 20141 30080 40239 52005=
27858 42560 40702 10168 20130 39927 40234 52005 82570=
27872 41/42 20000 10129 20124 30032 40242 52007 71000 82040=
27890 82997 00101 10152 20106 30151 40239 52006 555   10016=
27894 42984 03202 10143 20110 30068 40241 52005=
27894 82984 03202 10143 20110 30068 40241 52005 555   10016=
27906 42970 00302 10175 20157 39999 40230 54000=
27921 42960 00502 10176 20141 39981 40237 52001=
27928 41940 00502 10180 20156 30027 40225 52001 71000=
27930 42960 20403 10173 20156 30015 40224 52001 80001=
27935 41940 00302 10188 20154 30039 40222 52002 71000=
27947 42960 03302 10162 20147 30075 40228 52004=
27955 42/67 20501 10188 20164 39987 40228 51006 82030=
27957 42960 00301 10184 20157 30025 40223 52005=
27962 42/60 20601 10181 20165 30031 40232 52009 80030=
27972 42974 00501 10142 20136 39939 40239 52008=
27981 42960 02701 10132 20123 30110 40240 52009=
27983 42970 03602 10146 20120 30113 40248 52009=
27995 42970 00401 10147 20115 30175 40234 52006=
28009 42998 82201 10121 20107 39995 40197 57004 80001 333 91002 91102=
28044 82597 72803 10126 20094 39991 40140 53004 87500=
28049 42/84 62302 10127 20117 39978 40135 54000 86030=
28116 82499 72301 10102 20099 39970 40194 57002 81405=
28138 41584 82002 10101 20089 39631 40180 54000 70282 885//=
28144 42484 72702 10126 20097 30000 40151 54000 86350=
28158 42999 82302 10128 20121 30059 40134 54000 8805/=
28214 42996 72503 10118 20105 30013 40218 52001 80008 333 91003 91103=
28224 42970 12702 10140 20114 39993 40198 52001 80001=
28240 42599 82603 10126 20094 39865 40174 57001 885//=
28319 42/70 22401 10107 20100 30061 40220 53001 82030=
28321 42984 22603 10121 20102 30011 40208 54001 80001=
28334 42/70 22202 10097 20087 39905 40204 54001 82040=
28411 42997 32601 10114 20090 30032 40227 53002 80001 333 91002 91102=
28418 42997 22901 10118 20097 30064 40229 52002 80001 333 91002 91104=
28434 42570 62802 10126 20104 39960 40206 57003 86500=
28440 42960 02902 10127 20077 39854 40188 54001=
28502 42997 21901 10093 20078 30136 40237 52004 80001 333 91001 91103=
28506 42960 00000 10112 20084 30127 40238 52004=
28517 42960 02501 10102 20088 30099 40236 52003=
28522 429// 22101 10099 20085 39973 40224 54001 80001=
28541 42970 00701 10076 20072 39733 40213 50002=
28552 42560 32802 10114 20100 30071 40178 52009 81502=
28612 42970 00000 10089 20086 30143 40240 52006=
28621 42997 02402 10133 20094 30006 40230 52002=
28645 42970 03102 10123 20102 39922 40202 52006=
28661 41660 83003 10172 20147 30072 40160 53002 70298 82932=
28666 41417 80301 10164 20163 39981 40146 57002 71022 886//=
28676 41/02 91601 10138 20131 30037 40157 53002 74541 89///=
28704 42970 00000 10077 20072 30151 40246 52008=
28705 42960 00000 10091 20078 30052 40246 52007=
28705 82997 00000 10091 20078 30052 40246 52007 555   10009=
28709 829// 20501 10102 20078 39943 40247 53006 80040 555   1/011=
28711 42/60 22901 10092 20081 39879 40247 52006 82030=
28719 42997 00401 10087 20072 39823 40242 52005=
28722 42/// /0000 10089 20085 30104 40233 52005=
28748 42/70 63204 10154 20095 39972 40199 52018 83031=
28766 41595 40000 10158 20133 39969 40146 53001 70511 84500 555 10014=
28785 42698 80000 10173 20147 30003 40150 53002 885// 555 10016=
28802 82998 00402 10119 20081 30099 40238 52009 555   10012=
28805 82997 00000 10117 20088 30165 40237 52011 555   10013=
28806 42960 33301 10114 20095 30123 40237 52009 80001=
28806 42997 33301 10114 20095 30123 40237 52009 80001 555   10011=
28825 42960 30102 10145 20085 30059 40223 52006 80009=
28838 42970 50203 10141 20128 39757 40208 52016 80001=
28867 42570 52502 10171 20090 39907 40161 57002 85200=
28877 41996 00000 10162 20155 39780 40158 53001 71000 555 10014=
28879 41/02 90000 10141 20132 39884 40156 53003 74542 89///=
28886 42998 00301 10156 20133 39986 40147 53001 555 11015=
28900 42960 20802 10184 20094 30069 40231 52009 80001=
28900 82997 20802 10184 20094 30069 40231 52009 80001 555   10017=
28901 82999 00402 10153 20100 30143 40231 52008 555   10016=
28903 42970 00000 10157 20098 30131 40231 52010 555   10016=
28904 42997 00203 10170 20125 40235 52010=
28908 42984 03302 10141 20108 30119 40228 52008=
28908 42984 03302 10141 20108 30119 40228 52008 555   10014=
28916 42960 33602 10156 20105 39993 40221 52006 80009=
28916 42997 33602 10156 20105 39993 40221 52006 80009 555   10015=
28952 415// 83202 10189 20157 39991 40169 52007 78081 889// 555 1/018=
28957 414// 80305 10182 20159 39928 40173 53010 72998 8525/ 555 11017=
28966 42970 00000 10140 20124 39892 40160 53002=
28978 41940 80000 10127 20123 39697 40164 53003 71011 80005=
28984 41/05 90000 10145 20143 39695 40155 57000 74542 89///=
29023 11996 50301 10077 20062 30094 40187 52003 60002 71022 82032 333 20071 30007 55149=
29068 12998 03301 10106 20084 30065 40146 52005 60002 333 20090 31007=
29111 11999 10000 10074 20073 30093 40178 57002 60002 71100 80009 333 20067 37007 55144=
29122 12998 10401 10071 20063 30110 40180 52003 60002 80001 333 20063 31011=
29149 12998 63602 10103 20071 30039 40165 51001 60002 80002 333 20072 30009 55114=
29203 12599 70000 10118 20089 30072 40168 55000 60002 82531 333 20101 30011 55131=
29209 11996 20000 10072 20070 30045 40167 57001 60002 71000 82070 333 20070 31007=
29231 12998 20101 10092 20075 30074 40167 53001 60002 80002 333 20080 31008 55112=
29253 12998 00000 10086 20067 39978 40144 53005 60002 333 20074 30007=
29263 12999 03101 10114 20090 30022 40121 52004 333 20105 30009 55065=
29274 12983 02701 10119 20107 30015 40122 52003 60002 333 20095=
29276 13/// /0000 10103 20093 39918 40124 52006 60002 333 20068 3////=
29282 12598 23201 10135 20114 39954 40113 52007 60002 81901 333 20104 31010 55084=
29313 12998 20000 10068 20067 30050 40170 52002 60002 80002 333 20059 30008 55036=
29328 62998 23401 10083 20072 30022 40157 52003 60002 80001 333 20056 30008 55035=
29332 12998 10102 10118 20072 30022 40158 52007 60002 80001 333 20110 30012=
29348 12997 03501 10108 20083 30007 40146 52007 60002 333 20096 30012 55079=
29363 13/// /0000 10091 20171 39899 40104 52004 60002 333 20062 3////=
29367 13/// /0000 10113 20113 39908 40124 52004 60002 333 20088 3////=
29379 11/92 93401 10136 20132 39909 40104 53004 60002 74544 333 20113 30011=
29393 11596 83001 10142 20141 39836 40094 54000 60022 71082 886// 333 20126 31013 55063=
29405 12697 80801 10133 20114 30022 40162 52003 60002 8553/ 333 20123 30012 55000=
29418 12998 80101 10121 20102 30004 40155 53003 60002 8801/ 333 20119 30011 55000=
29430 12998 00502 10131 20106 39965 40131 53005 60002 333 20130 30014=
29456 12999 73301 10121 20105 39882 40127 53003 60002 85031 333 20107 30012=
29464 12999 50302 10123 20116 39837 40111 54000 60002 85030 333 20121 30011=
29467 41/93 90000 10128 20126 39815 40121 53003 60002 74542 333 20127 30013=
29471 11991 03001 10119 20111 39896 40111 52003 60002 74640 333 20114 30013=
29477 11993 02901 10127 20114 39915 40110 53003 60002 74441 333 20123 30013=
29481 11993 83001 10143 20141 39880 40102 53003 60002 74442 80007 333 20119 31010=
29485 11996 83301 10154 20152 39814 40100 53002 60062 71011 8802/ 333 20131 31014=
29524 12998 20502 10116 20094 39988 40143 52001 60002 80002 333 20114 30011=
29551 12599 23601 10116 20110 39956 40129 53003 60002 81301 333 20115 30013=
29553 11997 00000 10119 20111 39782 40127 53003 60002 71000 333 20118 31012 55107=
29561 11996 50000 10139 20134 39812 40113 53004 60002 71011 80001 333 20136 30013 55118=
29562 11993 00000 10123 20118 39725 40116 53003 60002 74440 333 20113 30013=
29563 11/93 90000 10114 20110 39558 40118 52002 60002 74541 333 20099 30012=
29566 12999 30000 10145 20129 39788 40110 52002 60002 80001 333 20131 30024 55119=
29571 11993 00000 10144 20140 39831 40106 53003 60002 74611 333 20133 30012 55138=
29576 11592 72201 10112 20108 39668 40110 53002 60002 74622 85931 333 20099 30011=
29578 11494 82801 10138 20138 39637 40102 53003 60002 74402 886// 333 20104 30012=
29580 11998 70201 10154 20147 39690 40103 53002 60002 71222 83031 333 20013 30013 55105=
29581 11496 70000 10139 20139 39863 40102 54000 60002 72841 87600 333 20103 30013=
29587 11992 00000 10114 20109 39807 40106 53002 60002 74440 333 20098 30013=
29594 12598 80000 10130 20122 39741 40101 57001 60002 86935 333 20098 30009 55079=
29602 11994 03402 10122 20115 30011 40145 53003 60002 72800 333 20100 30012=
29605 11/93 93602 10145 20138 30003 40137 53004 60002 74542 333 20139 30014 55114=
29612 12998 00204 10129 20116 39995 40139 52002 60002 333 20127 30012 55135=
29631 12998 00301 10138 20100 39949 40122 52001 60002 333 20136 30014=
29636 12999 02501 10150 20124 39913 40117 52003 60002 333 20145 30014=
29638 12698 23602 10167 20141 39964 40121 52002 60002 81501 333 20166 30015 55142=
29645 12997 23402 10170 20157 39934 40107 53003 60002 81031 333 20165 30016 55140=
29653 11996 83302 10161 20160 39662 40110 52005 60002 71011 8802/ 333 20101 30012=
29654 11699 40000 10138 20128 39538 40114 52007 60002 74011 82531 333 20130 30011=
29662 11/92 90000 10111 20109 39729 40109 53004 60002 74541 333 20091 30012=
29664 12998 32502 10127 20115 39726 40111 53005 60002 80001 333 20103 30010=
29674 13999 00000 10080 20077 3//// 4//// 5//// 60002 333 2//// 3////=
29676 12998 00000 10096 20094 39703 40110 53003 60002 333 20074 30008=
29698 11993 01501 10098 20097 39631 40117 57004 60002 74440 333 20081 31010 55123=
29706 11997 30402 10161 20152 39991 40129 53003 69912 70500 82071 333 20160 30015 55129=
29712 12998 60201 10142 20127 39993 40128 52003 60042 86070 333 20140 31013=
29724 12598 20202 10154 20127 39925 40115 52002 60002 82900 333 20152 30015=
29726 11598 80303 10167 20133 39957 40114 51004 60002 70292 883// 333 20167 30018=
29736 12598 62901 10160 20155 39870 40105 53006 60002 86500 333 20155 30015=
29752 12499 80000 10133 20098 38787 48461 53001 69902 8694/ 333 20133 55106=
29759 12599 80000 10130 20105 39159 40119 53002 69902 8455/ 333 20114=
29766 12999 71201 10096 20092 39772 40109 52005 60002 80001 333 20078 30014=
29768 13/// /1101 10142 20110 39803 40102 52004 60002 333 20127 3////=
29771 12999 23202 10086 20067 39192 40121 57004 60002 80001 333 20060=
29772 12999 80000 10105 20097 39547 40110 52006 60002 80005 333 20088 30010=
29789 11996 80000 10066 20064 39006 40138 57005 60002 74011 80001 333 20051 32005 55080=
29802 41940 03603 10164 20162 39995 40128 53004 71000=
29807 41960 00000 10166 20145 30016 40127 52004 70281=
29814 12999 00202 10167 20147 39985 40122 52006 60002 333 20161 31016=
29827 11696 80402 10151 20142 39963 40107 52004 60122 71098 85541 333 20144 32015=
29833 46/// /0600 10143 29092 39834 92343=
29838 12597 62901 10155 20146 39885 40102 53008 69972 85501 333 20149 31015 55082=
29842 11597 71301 10166 20148 39827 40101 52006 60052 71798 85930 333 20164 32017=
29864 13/// /2905 10144 20110 39497 40104 52002 60022 333 20138 3////=
29866 12699 80701 10137 20118 39795 40094 53002 60002 82501 333 20097 30009 55131=
29869 12697 60000 10136 20126 39747 40094 52004 60002 82589 333 20117 30013=
29874 11996 40000 10118 20116 39725 40101 52004 60002 71011 82032 333 20104 30010=
29876 12999 30000 10106 20102 39591 40115 52003 60002 80001 333 20097=
29892 11/93 90901 10066 20064 39313 40140 57007 60002 74540 333 20062=
29915 12598 63402 10151 20145 39962 40110 52004 60002 82932 333 20149 31015=
29937 11593 63001 10149 20140 39898 40105 53007 60102 74682 86500 333 20149 31016=
29939 11598 81601 10161 20141 39840 40103 52006 69902 71798 86901 333 20150 30017=
29956 12699 62001 10138 20123 39584 40106 53005 60002 83501 333 20132 30015 55079=
29974 12897 70000 10120 20101 38573 48462 60002 86035 333 20101 55109 95000=
29998 82799 61901 10071 20067 38609 48479 53003 60002 83504 333 20067 31008 55106=20107 42/57 /0402 10080 20046 39877 49970 52011 333 91004


SMUS20 KWBC 120000
AAXX 12004